LRCL/CLJ METAR and TAF weather

Enter ICAO airport designator
Station Type Date Time Source
LRCL METAR 2020/04/06 10:30 UTC NOAA

LRCL 061030Z 12011KT 090V150 9999 NCD 14/M08 Q1034


Station Type Date Time Source
LRCL Decoded METAR 2020/04/06 10:30 UTC NOAA

Cluj-Napoca, Romania (LRCL) 46-47N 023-34E 413M
Apr 06, 2020 - 06:30 AM EDT / 2020.04.06 1030 UTC
Wind: from the ESE (120 degrees) at 13 MPH (11 KT) (direction variable):0
Visibility: greater than 7 mile(s):0
Temperature: 57 F (14 C)
Dew Point: 17 F (-8 C)
Relative Humidity: 20%
Pressure (altimeter): 30.53 in. Hg (1034 hPa)
ob: LRCL 061030Z 12011KT 090V150 9999 NCD 14/M08 Q1034
cycle: 10

Station Type Date Time Source
LRCL TAF 2007/05/23 16:57 UTC NOAA

TAF
AMD LRCL 231657Z 231607 VRB02MPS 9999 SCT030 BKN080
TEMPO 1719 VRB15G20MPS 1500 TSRAGR SCT010 BKN020CB OVC080

Example: see airport list